createdAt,value
2018-10-18T00:00:14.412Z,21.90
2018-10-18T00:02:41.670Z,21.03
2018-10-18T00:05:09.166Z,20.43
2018-10-18T00:07:36.644Z,20.20
2018-10-18T00:10:04.725Z,20.57
2018-10-18T00:12:31.981Z,21.43
2018-10-18T00:14:59.221Z,20.67
2018-10-18T00:17:32.282Z,20.33
2018-10-18T00:19:59.539Z,19.60
2018-10-18T00:22:26.697Z,20.50
2018-10-18T00:24:53.948Z,19.87
2018-10-18T00:27:21.193Z,20.10
2018-10-18T00:29:48.397Z,19.80
2018-10-18T00:32:15.729Z,19.90
2018-10-18T00:34:42.861Z,19.67
2018-10-18T00:37:10.106Z,19.17
2018-10-18T00:39:37.321Z,18.43
2018-10-18T00:42:04.632Z,21.07
2018-10-18T00:44:31.835Z,19.60
2018-10-18T00:46:59.017Z,19.87
2018-10-18T00:49:26.333Z,19.77
2018-10-18T00:51:53.552Z,19.40
2018-10-18T00:54:20.804Z,19.80
2018-10-18T00:56:48.081Z,20.30
2018-10-18T00:59:15.345Z,20.90
2018-10-18T01:01:42.573Z,17.80
2018-10-18T01:04:09.810Z,19.60
2018-10-18T01:06:37.035Z,19.77
2018-10-18T01:09:06.112Z,18.73
2018-10-18T01:11:33.337Z,20.60
2018-10-18T01:14:00.703Z,17.97
2018-10-18T01:16:27.934Z,19.03
2018-10-18T01:18:55.176Z,19.40
2018-10-18T01:21:22.412Z,20.60
2018-10-18T01:23:49.674Z,19.00
2018-10-18T01:26:17.007Z,19.33
2018-10-18T01:28:44.108Z,19.50
2018-10-18T01:31:11.382Z,19.57
2018-10-18T01:33:38.628Z,19.63
2018-10-18T01:36:05.890Z,18.33
2018-10-18T01:38:33.077Z,19.60
2018-10-18T01:41:00.321Z,18.57
2018-10-18T01:43:27.556Z,20.03
2018-10-18T01:45:54.796Z,18.83
2018-10-18T01:48:22.131Z,20.70
2018-10-18T01:50:49.374Z,20.03
2018-10-18T01:53:16.641Z,19.70
2018-10-18T01:55:43.815Z,19.50
2018-10-18T01:58:11.039Z,19.40
2018-10-18T02:00:38.269Z,20.17
2018-10-18T02:03:05.542Z,20.47
2018-10-18T02:05:32.777Z,20.07
2018-10-18T02:08:00.073Z,20.30
2018-10-18T02:10:27.332Z,19.50
2018-10-18T02:12:54.484Z,20.67
2018-10-18T02:15:21.720Z,21.37
2018-10-18T02:17:49.014Z,21.03
2018-10-18T02:20:16.250Z,20.73
2018-10-18T02:22:43.451Z,20.87
2018-10-18T02:25:10.720Z,20.77
2018-10-18T02:27:37.932Z,21.60
2018-10-18T02:30:05.373Z,21.20
2018-10-18T02:32:32.554Z,20.87
2018-10-18T02:34:59.774Z,20.23
2018-10-18T02:37:26.993Z,21.73
2018-10-18T02:39:54.223Z,19.73
2018-10-18T02:42:21.490Z,20.13
2018-10-18T02:44:48.745Z,20.37
2018-10-18T02:47:16.002Z,20.63
2018-10-18T02:49:43.230Z,20.43
2018-10-18T02:52:10.724Z,20.30
2018-10-18T02:54:38.010Z,20.20
2018-10-18T02:57:05.274Z,19.07
2018-10-18T02:59:32.493Z,21.87
2018-10-18T03:01:59.723Z,20.93
2018-10-18T03:04:26.941Z,22.57
2018-10-18T03:06:54.173Z,21.70
2018-10-18T03:09:21.381Z,22.20
2018-10-18T03:11:48.695Z,21.27
2018-10-18T03:14:15.951Z,21.37
2018-10-18T03:16:43.189Z,20.20
2018-10-18T03:19:10.442Z,21.53
2018-10-18T03:21:37.624Z,20.83
2018-10-18T03:24:04.966Z,20.63
2018-10-18T03:26:32.149Z,20.87
2018-10-18T03:28:59.416Z,20.27
2018-10-18T03:31:26.620Z,21.60
2018-10-18T03:33:53.873Z,20.13
2018-10-18T03:36:21.236Z,21.43
2018-10-18T03:38:50.636Z,21.83
2018-10-18T03:41:17.938Z,20.27
2018-10-18T03:43:45.112Z,22.30
2018-10-18T03:46:12.341Z,22.63
2018-10-18T03:48:39.528Z,22.30
2018-10-18T03:51:06.812Z,21.80
2018-10-18T03:53:34.054Z,22.50
2018-10-18T03:56:01.379Z,22.13
2018-10-18T03:58:28.608Z,22.20
2018-10-18T04:00:55.840Z,21.33
2018-10-18T04:03:23.085Z,20.77
2018-10-18T04:05:50.334Z,22.13
2018-10-18T04:08:17.513Z,20.50
2018-10-18T04:10:44.704Z,21.37
2018-10-18T04:13:11.947Z,21.37
2018-10-18T04:15:39.197Z,21.63
2018-10-18T04:18:06.490Z,21.47
2018-10-18T04:20:33.686Z,22.97
2018-10-18T04:23:00.906Z,21.67
2018-10-18T04:25:28.076Z,20.73
2018-10-18T04:27:55.306Z,21.93
2018-10-18T04:30:22.552Z,22.23
2018-10-18T04:32:49.782Z,21.87
2018-10-18T04:35:17.061Z,21.30
2018-10-18T04:37:44.271Z,19.60
2018-10-18T04:40:11.566Z,21.50
2018-10-18T04:42:38.766Z,21.03
2018-10-18T04:45:06.317Z,22.43
2018-10-18T04:47:33.581Z,20.73
2018-10-18T04:50:00.869Z,20.37
2018-10-18T04:52:28.130Z,20.47
2018-10-18T04:54:55.368Z,21.37
2018-10-18T04:57:22.633Z,22.00
2018-10-18T04:59:49.854Z,21.93
2018-10-18T05:02:17.072Z,22.20
2018-10-18T05:04:50.027Z,21.60
2018-10-18T05:07:17.351Z,20.97
2018-10-18T05:09:44.471Z,21.50
2018-10-18T05:12:11.718Z,20.23
2018-10-18T05:14:39.010Z,21.60
2018-10-18T05:17:06.238Z,22.07
2018-10-18T05:19:33.469Z,21.90
2018-10-18T05:22:00.693Z,22.47
2018-10-18T05:24:27.978Z,20.80
2018-10-18T05:26:55.215Z,21.60
2018-10-18T05:29:22.385Z,23.23
2018-10-18T05:31:49.677Z,21.77
2018-10-18T05:34:16.880Z,19.47
2018-10-18T05:36:44.105Z,22.17
2018-10-18T05:39:12.357Z,21.37
2018-10-18T05:41:39.601Z,21.80
2018-10-18T05:44:06.841Z,21.57
2018-10-18T05:46:34.121Z,21.70
2018-10-18T05:49:01.352Z,20.10
2018-10-18T05:51:28.550Z,20.60
2018-10-18T05:53:55.984Z,22.20
2018-10-18T05:56:23.046Z,22.50
2018-10-18T05:58:50.237Z,19.87
2018-10-18T06:01:17.614Z,19.97
2018-10-18T06:03:44.647Z,19.10
2018-10-18T06:06:11.928Z,20.43
2018-10-18T06:08:39.157Z,20.20
2018-10-18T06:11:12.117Z,21.13
2018-10-18T06:13:39.348Z,20.00
2018-10-18T06:16:06.569Z,20.00
2018-10-18T06:18:33.809Z,20.17
2018-10-18T06:21:01.112Z,20.53
2018-10-18T06:23:28.371Z,21.50
2018-10-18T06:25:55.509Z,19.80
2018-10-18T06:28:22.764Z,21.03
2018-10-18T06:30:49.995Z,21.37
2018-10-18T06:33:17.251Z,21.60
2018-10-18T06:35:44.475Z,21.57
2018-10-18T06:38:11.717Z,22.83
2018-10-18T06:40:38.937Z,22.30
2018-10-18T06:43:06.286Z,22.13
2018-10-18T06:45:33.376Z,22.07
2018-10-18T06:48:00.727Z,22.20
2018-10-18T06:50:27.877Z,20.77
2018-10-18T06:52:55.145Z,21.70
2018-10-18T06:55:22.362Z,21.93
2018-10-18T06:57:49.543Z,21.73
2018-10-18T07:00:20.757Z,22.63
2018-10-18T07:02:48.173Z,21.43
2018-10-18T07:05:15.416Z,22.03
2018-10-18T07:07:43.004Z,22.43
2018-10-18T07:10:10.242Z,23.83
2018-10-18T07:12:37.873Z,22.00
2018-10-18T07:15:05.484Z,22.37
2018-10-18T07:17:32.797Z,21.40
2018-10-18T07:20:02.424Z,20.97
2018-10-18T07:22:29.682Z,20.37
2018-10-18T07:24:56.948Z,20.40
2018-10-18T07:27:24.251Z,20.10
2018-10-18T07:29:51.469Z,19.57
2018-10-18T07:32:18.675Z,19.63
2018-10-18T07:34:45.906Z,19.57
2018-10-18T07:37:13.145Z,20.87
2018-10-18T07:39:40.430Z,21.93
2018-10-18T07:42:07.765Z,22.87
2018-10-18T07:44:34.972Z,22.50
2018-10-18T07:47:02.333Z,21.53
2018-10-18T07:49:32.595Z,20.83
2018-10-18T07:51:59.812Z,21.13
2018-10-18T07:54:27.110Z,20.50
2018-10-18T07:56:54.344Z,20.37
2018-10-18T07:59:21.517Z,20.63
2018-10-18T08:01:48.685Z,20.83
2018-10-18T08:04:15.869Z,21.27
2018-10-18T08:06:43.109Z,21.67
2018-10-18T08:09:12.408Z,21.00
2018-10-18T08:11:39.771Z,22.40
2018-10-18T08:14:06.967Z,22.00
2018-10-18T08:16:34.372Z,23.77
2018-10-18T08:19:01.909Z,21.87
2018-10-18T08:21:29.025Z,23.73
2018-10-18T08:23:56.193Z,22.67
2018-10-18T08:26:23.408Z,24.67
2018-10-18T08:28:50.572Z,21.30
2018-10-18T08:31:17.928Z,23.40
2018-10-18T08:33:44.885Z,24.13
2018-10-18T08:36:12.049Z,22.63
2018-10-18T08:38:39.189Z,22.10
2018-10-18T08:41:06.362Z,23.83
2018-10-18T08:43:33.527Z,24.20
2018-10-18T08:46:00.677Z,24.73
2018-10-18T08:48:27.837Z,24.10
2018-10-18T08:50:54.990Z,23.57
2018-10-18T08:53:22.136Z,23.63
2018-10-18T08:55:49.294Z,22.00
2018-10-18T08:58:16.483Z,22.50
2018-10-18T09:00:43.772Z,22.87
2018-10-18T09:03:10.920Z,22.00
2018-10-18T09:05:38.104Z,22.67
2018-10-18T09:08:05.269Z,22.03
2018-10-18T09:10:32.449Z,22.93
2018-10-18T09:12:59.658Z,23.37
2018-10-18T09:15:26.753Z,23.67
2018-10-18T09:17:53.952Z,21.60
2018-10-18T09:20:21.090Z,21.87
2018-10-18T09:22:48.263Z,22.47
2018-10-18T09:25:15.511Z,22.27
2018-10-18T09:27:42.625Z,22.40
2018-10-18T09:30:11.121Z,22.20
2018-10-18T09:32:38.275Z,23.10
2018-10-18T09:35:05.473Z,20.70
2018-10-18T09:37:32.645Z,21.90
2018-10-18T09:39:59.848Z,20.37
2018-10-18T09:42:27.025Z,20.70
2018-10-18T09:44:54.272Z,21.25
2018-10-18T09:47:21.416Z,20.15
2018-10-18T09:49:48.589Z,20.82
2018-10-18T09:52:15.768Z,21.33
2018-10-18T09:54:42.953Z,20.12
2018-10-18T09:57:10.168Z,21.07
2018-10-18T09:59:37.349Z,20.17
2018-10-18T10:02:10.353Z,19.12
2018-10-18T10:04:37.546Z,19.52
2018-10-18T10:07:04.729Z,19.15
2018-10-18T10:09:31.921Z,19.23
2018-10-18T10:11:59.134Z,19.27
2018-10-18T10:14:26.300Z,20.37
2018-10-18T10:16:53.461Z,18.87
2018-10-18T10:19:21.350Z,18.10
2018-10-18T10:21:48.531Z,20.32
2018-10-18T10:24:15.742Z,17.60
2018-10-18T10:26:42.905Z,18.77
2018-10-18T10:29:10.099Z,19.12
2018-10-18T10:31:37.297Z,19.32
2018-10-18T10:34:04.498Z,18.02
2018-10-18T10:36:31.665Z,18.32
2018-10-18T10:38:58.913Z,18.55
2018-10-18T10:41:26.008Z,18.27
2018-10-18T10:43:53.166Z,18.55
2018-10-18T10:46:20.376Z,18.45
2018-10-18T10:48:47.518Z,18.27
2018-10-18T10:51:14.768Z,18.15
2018-10-18T10:53:41.853Z,19.55
2018-10-18T10:56:09.053Z,18.77
2018-10-18T10:58:36.200Z,17.95
2018-10-18T11:01:09.261Z,18.73
2018-10-18T11:03:37.093Z,19.57
2018-10-18T11:06:04.439Z,17.05
2018-10-18T11:08:31.516Z,17.90
2018-10-18T11:10:58.717Z,18.48
2018-10-18T11:13:27.053Z,18.25
2018-10-18T11:15:54.325Z,18.80
2018-10-18T11:18:21.490Z,18.57
2018-10-18T11:20:48.819Z,18.98
2018-10-18T11:23:16.457Z,18.90
2018-10-18T11:25:43.851Z,18.50
2018-10-18T11:28:12.796Z,19.23
2018-10-18T11:30:40.037Z,19.42
2018-10-18T11:33:08.082Z,17.65
2018-10-18T11:35:35.202Z,16.77
2018-10-18T11:38:02.456Z,19.37
2018-10-18T11:40:29.613Z,18.70
2018-10-18T11:42:56.765Z,17.50
2018-10-18T11:45:23.930Z,18.90
2018-10-18T11:47:51.059Z,19.35
2018-10-18T11:50:18.300Z,17.07
2018-10-18T11:52:45.378Z,19.35
2018-10-18T11:55:12.553Z,16.55
2018-10-18T11:57:39.677Z,18.90
2018-10-18T12:00:08.638Z,19.65
2018-10-18T12:02:35.797Z,20.00
2018-10-18T12:05:03.079Z,18.35
2018-10-18T12:07:30.320Z,18.12
2018-10-18T12:09:57.536Z,17.23
2018-10-18T12:12:24.693Z,18.25
2018-10-18T12:14:51.873Z,17.82
2018-10-18T12:17:19.013Z,16.55
2018-10-18T12:19:46.188Z,15.68
2018-10-18T12:22:13.347Z,15.53
2018-10-18T12:24:40.509Z,15.75
2018-10-18T12:27:07.677Z,15.60
2018-10-18T12:29:34.845Z,16.20
2018-10-18T12:32:02.097Z,17.45
2018-10-18T12:34:29.200Z,16.85
2018-10-18T12:36:56.385Z,16.23
2018-10-18T12:39:23.560Z,16.10
2018-10-18T12:41:50.745Z,15.63
2018-10-18T12:44:18.070Z,14.93
2018-10-18T12:46:45.178Z,13.83
2018-10-18T12:49:12.346Z,14.53
2018-10-18T12:51:39.513Z,14.60
2018-10-18T12:54:06.930Z,14.60
2018-10-18T12:56:34.096Z,13.55
2018-10-18T12:59:01.269Z,13.18
2018-10-18T13:01:28.512Z,12.75
2018-10-18T13:03:55.764Z,13.00
2018-10-18T13:06:22.995Z,11.25
2018-10-18T13:08:50.310Z,11.30
2018-10-18T13:11:17.512Z,10.35
2018-10-18T13:13:44.733Z,11.45
2018-10-18T13:16:11.885Z,12.35
2018-10-18T13:18:39.061Z,12.25
2018-10-18T13:21:06.234Z,13.62
2018-10-18T13:23:33.400Z,12.85
2018-10-18T13:26:00.611Z,13.80
2018-10-18T13:28:27.740Z,12.37
2018-10-18T13:30:54.922Z,12.80
2018-10-18T13:33:22.165Z,13.83
2018-10-18T13:35:49.424Z,12.70
2018-10-18T13:38:16.630Z,13.90
2018-10-18T13:40:43.829Z,12.98
2018-10-18T13:43:10.941Z,12.50
2018-10-18T13:45:38.132Z,12.05
2018-10-18T13:48:05.415Z,14.15
2018-10-18T13:50:32.501Z,12.37
2018-10-18T13:52:59.817Z,13.32
2018-10-18T13:55:26.990Z,13.20
2018-10-18T13:57:54.166Z,12.60
2018-10-18T14:00:28.841Z,12.95
2018-10-18T14:02:56.340Z,13.68
2018-10-18T14:05:24.186Z,14.33
2018-10-18T14:07:52.295Z,14.05
2018-10-18T14:10:19.437Z,14.47
2018-10-18T14:12:46.799Z,16.17
2018-10-18T14:15:13.975Z,15.80
2018-10-18T14:17:41.468Z,14.93
2018-10-18T14:20:09.100Z,14.33
2018-10-18T14:22:36.274Z,14.40
2018-10-18T14:25:03.481Z,16.12
2018-10-18T14:27:30.673Z,14.70
2018-10-18T14:29:57.885Z,14.38
2018-10-18T14:32:25.074Z,16.35
2018-10-18T14:34:52.266Z,15.95
2018-10-18T14:37:19.398Z,15.98
2018-10-18T14:39:46.720Z,15.72
2018-10-18T14:42:13.989Z,16.87
2018-10-18T14:44:41.374Z,16.52
2018-10-18T14:47:08.347Z,15.60
2018-10-18T14:49:35.531Z,14.73
2018-10-18T14:52:02.724Z,16.15
2018-10-18T14:54:29.877Z,17.40
2018-10-18T14:56:57.062Z,16.35
2018-10-18T14:59:24.257Z,16.15
2018-10-18T15:01:51.389Z,16.52
2018-10-18T15:04:18.632Z,15.83
2018-10-18T15:06:45.818Z,15.78
2018-10-18T15:09:13.015Z,16.12
2018-10-18T15:11:40.176Z,16.32
2018-10-18T15:14:07.699Z,16.65
2018-10-18T15:16:34.814Z,17.55
2018-10-18T15:19:01.981Z,19.37
2018-10-18T15:21:29.141Z,17.07
2018-10-18T15:23:56.334Z,16.65
2018-10-18T15:26:23.554Z,16.50
2018-10-18T15:28:50.659Z,16.20
2018-10-18T15:31:17.801Z,14.78
2018-10-18T15:33:44.957Z,13.85
2018-10-18T15:36:12.142Z,15.70
2018-10-18T15:38:39.480Z,15.40
2018-10-18T15:41:06.562Z,15.88
2018-10-18T15:43:33.652Z,14.83
2018-10-18T15:46:00.830Z,14.80
2018-10-18T15:48:27.996Z,15.00
2018-10-18T15:50:55.144Z,16.07
2018-10-18T15:53:22.341Z,14.33
2018-10-18T15:55:49.677Z,15.18
2018-10-18T15:58:16.834Z,13.62
2018-10-18T16:00:44.021Z,12.88
2018-10-18T16:03:11.257Z,12.18
2018-10-18T16:05:38.385Z,13.03
2018-10-18T16:08:05.553Z,11.97
2018-10-18T16:10:32.752Z,11.53
2018-10-18T16:12:59.912Z,11.78
2018-10-18T16:15:27.096Z,12.45
2018-10-18T16:17:54.330Z,11.97
2018-10-18T16:20:21.505Z,12.20
2018-10-18T16:22:48.681Z,11.70
2018-10-18T16:25:15.841Z,12.82
2018-10-18T16:27:42.994Z,12.25
2018-10-18T16:30:10.317Z,13.45
2018-10-18T16:32:37.841Z,15.63
2018-10-18T16:35:05.460Z,15.75
2018-10-18T16:37:32.503Z,15.75
2018-10-18T16:39:59.672Z,16.35
2018-10-18T16:42:26.828Z,16.40
2018-10-18T16:44:53.985Z,19.65
2018-10-18T16:47:21.346Z,15.95
2018-10-18T16:49:48.512Z,16.70
2018-10-18T16:52:15.799Z,18.48
2018-10-18T16:54:42.986Z,16.65
2018-10-18T16:57:10.065Z,17.35
2018-10-18T16:59:37.259Z,17.73
2018-10-18T17:02:04.741Z,16.80
2018-10-18T17:04:31.940Z,16.80
2018-10-18T17:06:59.080Z,16.43
2018-10-18T17:09:26.220Z,16.57
2018-10-18T17:11:53.506Z,17.87
2018-10-18T17:14:20.635Z,17.20
2018-10-18T17:16:47.785Z,17.07
2018-10-18T17:19:15.208Z,17.43
2018-10-18T17:21:42.439Z,16.10
2018-10-18T17:24:09.718Z,16.73
2018-10-18T17:26:36.841Z,16.60
2018-10-18T17:29:04.189Z,16.60
2018-10-18T17:31:32.447Z,15.03
2018-10-18T17:33:59.680Z,16.63
2018-10-18T17:36:26.779Z,15.83
2018-10-18T17:38:55.020Z,18.13
2018-10-18T17:41:22.211Z,18.10
2018-10-18T17:43:51.357Z,20.03
2018-10-18T17:46:18.632Z,18.63
2018-10-18T17:48:45.703Z,18.93
2018-10-18T17:51:12.983Z,18.63
2018-10-18T17:53:40.173Z,19.27
2018-10-18T17:56:07.660Z,19.10
2018-10-18T17:58:34.863Z,17.93
2018-10-18T18:01:02.138Z,17.23
2018-10-18T18:03:29.368Z,18.20
2018-10-18T18:05:56.664Z,19.40
2018-10-18T18:08:23.742Z,18.83
2018-10-18T18:10:50.914Z,25.60
2018-10-18T18:13:18.075Z,18.57
2018-10-18T18:15:45.296Z,20.13
2018-10-18T18:18:12.430Z,19.43
2018-10-18T18:20:39.572Z,19.93
2018-10-18T18:23:06.757Z,17.83
2018-10-18T18:25:33.925Z,18.73
2018-10-18T18:28:01.284Z,18.63
2018-10-18T18:30:28.518Z,17.30
2018-10-18T18:32:55.694Z,19.07
2018-10-18T18:35:22.857Z,18.77
2018-10-18T18:37:50.039Z,20.53
2018-10-18T18:40:17.209Z,18.80
2018-10-18T18:42:44.372Z,19.67
2018-10-18T18:45:17.349Z,19.87
2018-10-18T18:47:44.381Z,19.27
2018-10-18T18:50:11.550Z,19.23
2018-10-18T18:52:38.709Z,19.77
2018-10-18T18:55:06.098Z,19.03
2018-10-18T18:57:33.268Z,18.83
2018-10-18T19:00:00.423Z,18.67
2018-10-18T19:02:27.581Z,20.30
2018-10-18T19:04:54.747Z,19.93
2018-10-18T19:07:21.897Z,19.57
2018-10-18T19:09:49.148Z,29.93
2018-10-18T19:12:16.312Z,25.47
2018-10-18T19:14:43.508Z,28.67
2018-10-18T19:17:10.673Z,30.93
2018-10-18T19:19:38.538Z,24.93
2018-10-18T19:22:05.963Z,24.50
2018-10-18T19:24:33.128Z,23.60
2018-10-18T19:27:00.313Z,22.63
2018-10-18T19:29:27.574Z,22.83
2018-10-18T19:31:54.882Z,23.17
2018-10-18T19:34:22.084Z,24.63
2018-10-18T19:36:49.245Z,23.43
2018-10-18T19:39:16.400Z,25.03
2018-10-18T19:41:43.556Z,25.03
2018-10-18T19:44:10.808Z,26.07
2018-10-18T19:46:37.973Z,26.47
2018-10-18T19:49:05.089Z,27.27
2018-10-18T19:51:32.272Z,26.97
2018-10-18T19:53:59.448Z,23.23
2018-10-18T19:56:26.632Z,22.53
2018-10-18T19:58:54.659Z,22.87
2018-10-18T20:01:21.892Z,23.10
2018-10-18T20:03:49.253Z,32.47
2018-10-18T20:06:16.449Z,38.00
2018-10-18T20:08:43.594Z,27.70
2018-10-18T20:11:10.848Z,35.67
2018-10-18T20:13:38.001Z,25.53
2018-10-18T20:16:05.757Z,25.67
2018-10-18T20:18:33.014Z,24.27
2018-10-18T20:21:00.175Z,25.70
2018-10-18T20:23:27.296Z,24.77
2018-10-18T20:25:54.659Z,24.80
2018-10-18T20:28:21.776Z,27.03
2018-10-18T20:30:48.943Z,26.77
2018-10-18T20:33:16.243Z,27.60
2018-10-18T20:35:43.431Z,25.73
2018-10-18T20:38:10.531Z,28.20
2018-10-18T20:40:37.686Z,31.17
2018-10-18T20:43:04.901Z,28.30
2018-10-18T20:45:34.192Z,28.50
2018-10-18T20:48:01.557Z,28.57
2018-10-18T20:50:28.624Z,27.03
2018-10-18T20:52:55.821Z,27.50
2018-10-18T20:55:23.024Z,27.37
2018-10-18T20:57:50.205Z,27.80
2018-10-18T21:00:17.466Z,27.03
2018-10-18T21:02:44.591Z,27.03
2018-10-18T21:05:11.801Z,26.17
2018-10-18T21:07:39.121Z,26.33
2018-10-18T21:10:06.341Z,25.90
2018-10-18T21:12:33.513Z,26.67
2018-10-18T21:15:00.695Z,27.40
2018-10-18T21:17:27.852Z,27.50
2018-10-18T21:19:55.017Z,28.77
2018-10-18T21:22:22.181Z,27.20
2018-10-18T21:24:49.361Z,27.83
2018-10-18T21:27:16.522Z,28.00
2018-10-18T21:29:43.937Z,30.37
2018-10-18T21:32:11.112Z,29.73
2018-10-18T21:34:38.367Z,26.20
2018-10-18T21:37:05.474Z,24.40
2018-10-18T21:39:33.928Z,25.80
2018-10-18T21:42:02.018Z,27.33
2018-10-18T21:44:30.682Z,29.03
2018-10-18T21:46:58.353Z,30.50
2018-10-18T21:49:26.311Z,31.70
2018-10-18T21:51:53.474Z,31.43
2018-10-18T21:54:20.654Z,31.47
2018-10-18T21:56:47.820Z,33.17
2018-10-18T21:59:15.081Z,32.93
2018-10-18T22:01:42.558Z,32.27
2018-10-18T22:04:09.760Z,33.07
2018-10-18T22:06:36.973Z,32.97
2018-10-18T22:09:04.764Z,34.17
2018-10-18T22:11:31.922Z,34.10
2018-10-18T22:13:59.132Z,34.70
2018-10-18T22:16:26.305Z,35.30
2018-10-18T22:18:53.486Z,34.30
2018-10-18T22:21:20.660Z,34.53
2018-10-18T22:23:47.841Z,35.60
2018-10-18T22:26:15.036Z,34.13
2018-10-18T22:28:42.217Z,35.83
2018-10-18T22:31:09.381Z,35.07
2018-10-18T22:33:36.624Z,35.30
2018-10-18T22:36:04.152Z,34.63
2018-10-18T22:38:31.321Z,34.43
2018-10-18T22:40:58.553Z,35.73
2018-10-18T22:43:25.692Z,36.73
2018-10-18T22:45:59.546Z,36.37
2018-10-18T22:48:27.313Z,36.53
2018-10-18T22:50:54.701Z,34.53
2018-10-18T22:53:21.912Z,32.90
2018-10-18T22:55:49.122Z,33.20
2018-10-18T22:58:16.301Z,33.07
2018-10-18T23:00:47.275Z,33.37
2018-10-18T23:03:15.022Z,34.13
2018-10-18T23:05:42.113Z,33.30
2018-10-18T23:08:09.280Z,31.67
2018-10-18T23:10:36.496Z,32.37
2018-10-18T23:13:03.713Z,33.83
2018-10-18T23:15:30.889Z,34.20
2018-10-18T23:17:58.045Z,35.63
2018-10-18T23:20:25.217Z,32.63
2018-10-18T23:22:52.437Z,33.80
2018-10-18T23:25:19.561Z,34.20
2018-10-18T23:27:46.718Z,33.87
2018-10-18T23:30:13.905Z,32.23
2018-10-18T23:32:41.061Z,34.10
2018-10-18T23:35:08.247Z,31.03
2018-10-18T23:37:35.429Z,31.23
2018-10-18T23:40:02.936Z,32.40
2018-10-18T23:42:30.145Z,32.50
2018-10-18T23:44:57.396Z,32.87
2018-10-18T23:47:24.587Z,30.67
2018-10-18T23:49:51.789Z,30.37
2018-10-18T23:52:18.991Z,32.27
2018-10-18T23:54:46.185Z,32.30
2018-10-18T23:57:13.399Z,32.03
2018-10-18T23:59:40.555Z,33.60
